Time;durP1;ratioP1;P1;durP2;ratioP2;P2;SDS_P1;SDS_P2;PMS_P1;PMS_P2;Temp;Humidity;BMP_temperature;BMP_pressure;BME280_temperature;BME280_humidity;BME280_pressure;Samples;Min_cycle;Max_cycle;Signal;HPM_P1;HPM_P2
2023/05/21 00:01:31;;;;;;;4.60;2.63;;;;;;;20.56;43.25;101766.56;5003859;28;20041;-68
2023/05/21 00:03:58;;;;;;;4.97;2.70;;;;;;;20.57;42.89;101768.28;5024058;28;20029;-69
2023/05/21 00:06:23;;;;;;;4.88;2.90;;;;;;;20.56;43.01;101766.56;5019189;28;21270;-69
2023/05/21 00:08:49;;;;;;;4.32;2.60;;;;;;;20.57;43.13;101768.28;5014336;28;20630;-69
2023/05/21 00:11:14;;;;;;;4.60;2.80;;;;;;;20.56;42.81;101760.44;5005803;28;20075;-68
2023/05/21 00:13:39;;;;;;;5.20;2.47;;;;;;;20.58;42.90;101761.16;5009032;28;20030;-71
2023/05/21 00:16:05;;;;;;;4.70;2.80;;;;;;;20.56;43.16;101755.97;5009683;28;20064;-68
2023/05/21 00:18:31;;;;;;;5.22;2.65;;;;;;;20.57;43.11;101756.81;5012931;28;20071;-70
2023/05/21 00:20:56;;;;;;;4.57;2.65;;;;;;;20.55;43.00;101749.00;5009984;28;20036;-69
2023/05/21 00:23:21;;;;;;;5.20;2.70;;;;;;;20.56;43.05;101748.03;5015955;28;20036;-72
2023/05/21 00:25:47;;;;;;;5.10;2.80;;;;;;;20.54;42.97;101747.31;5006743;28;20053;-70
2023/05/21 00:28:12;;;;;;;4.18;2.45;;;;;;;20.56;42.89;101757.78;5012321;28;20325;-69
2023/05/21 00:30:38;;;;;;;4.35;2.60;;;;;;;20.54;43.04;101747.31;5012458;28;20033;-69
2023/05/21 00:33:04;;;;;;;6.38;2.80;;;;;;;20.53;43.03;101742.97;5013080;28;20855;-69
2023/05/21 00:35:29;;;;;;;4.90;2.80;;;;;;;20.54;43.10;101743.84;5010991;28;20519;-71
2023/05/21 00:37:55;;;;;;;4.25;2.65;;;;;;;20.54;42.93;101743.84;5013423;28;20500;-69
2023/05/21 00:40:20;;;;;;;4.30;2.78;;;;;;;20.53;42.90;101745.63;5013039;28;20041;-69
2023/05/21 00:42:46;;;;;;;6.03;3.17;;;;;;;20.54;43.06;101744.69;5012685;28;20371;-69
2023/05/21 00:45:13;;;;;;;5.10;3.25;;;;;;;20.51;43.25;101739.59;5010336;28;20112;-71
2023/05/21 00:47:40;;;;;;;5.13;3.20;;;;;;;20.50;43.13;101737.09;5015828;28;20026;-69
2023/05/21 00:50:07;;;;;;;5.45;3.58;;;;;;;20.50;43.03;101745.03;5015467;28;20034;-69
2023/05/21 00:52:40;;;;;;;6.15;3.42;;;;;;;20.52;43.04;101743.97;5011772;28;20088;-70
2023/05/21 00:55:06;;;;;;;5.93;3.50;;;;;;;20.49;43.22;101744.19;5013662;28;20068;-67
2023/05/21 00:57:33;;;;;;;6.32;3.60;;;;;;;20.50;43.00;101740.56;5006344;28;20073;-68
2023/05/21 00:59:58;;;;;;;5.35;3.33;;;;;;;20.50;43.18;101740.56;5016617;28;20436;-69
2023/05/21 01:02:24;;;;;;;5.70;3.28;;;;;;;20.48;42.98;101740.69;5016048;28;20033;-72
2023/05/21 01:04:53;;;;;;;5.10;3.35;;;;;;;20.48;43.13;101738.03;5010848;28;20127;-68
2023/05/21 01:07:18;;;;;;;5.03;3.00;;;;;;;20.50;43.13;101734.44;5011167;28;20201;-70
2023/05/21 01:09:43;;;;;;;5.50;2.92;;;;;;;20.50;43.35;101735.28;5012412;28;20059;-68
2023/05/21 01:12:10;;;;;;;4.63;3.08;;;;;;;20.47;42.99;101732.84;5011510;28;20041;-68
2023/05/21 01:14:36;;;;;;;5.05;2.97;;;;;;;20.50;43.20;101748.50;5010844;28;20057;-69
2023/05/21 01:17:03;;;;;;;6.35;3.60;;;;;;;20.50;43.15;101737.09;5014995;28;20042;-72
2023/05/21 01:19:28;;;;;;;4.70;3.05;;;;;;;20.48;43.06;101738.03;5014276;28;20042;-69
2023/05/21 01:21:59;;;;;;;6.18;3.20;;;;;;;20.45;43.09;101727.69;5016106;28;20084;-69
2023/05/21 01:24:25;;;;;;;4.53;2.85;;;;;;;20.49;43.05;101736.25;5009440;28;20029;-68
2023/05/21 01:26:51;;;;;;;4.45;3.08;;;;;;;20.48;43.15;101730.09;5015567;28;20055;-68
2023/05/21 01:29:16;;;;;;;4.95;3.28;;;;;;;20.45;42.89;101726.84;5012792;28;20052;-69
2023/05/21 01:32:09;;;;;;;4.93;3.10;;;;;;;20.46;43.10;101734.66;5009917;28;20068;-70
2023/05/21 01:34:44;;;;;;;4.20;2.70;;;;;;;20.45;43.14;101726.84;5013510;28;20040;-69
2023/05/21 01:37:50;;;;;;;4.30;3.03;;;;;;;20.46;43.26;101729.38;5015646;28;20033;-69
2023/05/21 01:40:25;;;;;;;4.22;2.78;;;;;;;20.44;43.11;101725.16;4993157;28;21028;-72
2023/05/21 01:42:50;;;;;;;5.53;2.88;;;;;;;20.45;43.08;101727.69;5016680;28;20033;-69
2023/05/21 01:45:17;;;;;;;5.07;2.97;;;;;;;20.45;43.22;101727.69;5011837;28;20440;-69
2023/05/21 01:47:47;;;;;;;4.65;3.13;;;;;;;20.46;43.25;101737.31;5011805;28;20450;-70
2023/05/21 01:50:13;;;;;;;4.70;2.90;;;;;;;20.46;43.32;101729.38;5010785;28;20026;-69
2023/05/21 01:52:38;;;;;;;5.53;3.53;;;;;;;20.43;43.18;101720.84;5010087;28;20034;-70
2023/05/21 01:55:04;;;;;;;6.00;2.70;;;;;;;20.43;43.23;101721.66;5010010;28;20029;-69
2023/05/21 01:57:29;;;;;;;4.88;3.03;;;;;;;20.45;43.03;101724.19;5012088;28;20270;-70
2023/05/21 01:59:56;;;;;;;5.05;3.13;;;;;;;20.45;43.22;101727.69;5014837;28;20034;-72
2023/05/21 02:02:21;;;;;;;5.95;3.25;;;;;;;20.45;43.13;101724.19;5001482;28;20038;-69
2023/05/21 02:04:48;;;;;;;4.93;3.30;;;;;;;20.45;43.16;101719.72;5001747;28;20046;-71
2023/05/21 02:07:14;;;;;;;5.47;3.40;;;;;;;20.43;43.43;101718.19;5009954;28;20033;-71
2023/05/21 02:09:39;;;;;;;5.78;2.83;;;;;;;20.42;43.26;101713.84;5007292;28;20059;-70
2023/05/21 02:12:06;;;;;;;5.05;3.40;;;;;;;20.41;43.22;101706.84;5016957;28;20129;-69
2023/05/21 02:14:32;;;;;;;5.57;2.92;;;;;;;20.42;43.33;101714.69;5005101;28;20651;-68
2023/05/21 02:16:59;;;;;;;5.57;3.00;;;;;;;20.43;43.35;101716.38;5012943;28;20055;-70
2023/05/21 02:19:25;;;;;;;6.90;3.28;;;;;;;20.45;43.38;101726.84;5002183;28;20092;-69
2023/05/21 02:21:51;;;;;;;8.10;3.55;;;;;;;20.42;43.25;101717.31;5001520;28;20033;-72
2023/05/21 02:24:16;;;;;;;6.63;3.17;;;;;;;20.41;42.97;101714.78;5005738;28;20044;-71
2023/05/21 02:26:42;;;;;;;4.57;2.53;;;;;;;20.40;43.08;101710.47;5007690;28;20835;-70
2023/05/21 02:29:07;;;;;;;5.75;3.00;;;;;;;20.43;43.32;101707.59;5006865;28;20053;-68
2023/05/21 02:31:33;;;;;;;4.80;2.95;;;;;;;20.42;43.36;101717.31;5001449;28;20158;-68
2023/05/21 02:33:58;;;;;;;6.10;2.97;;;;;;;20.41;43.12;101718.31;5014032;28;20038;-68
2023/05/21 02:36:24;;;;;;;4.80;3.15;;;;;;;20.40;43.34;101713.13;5018709;28;20045;-68
2023/05/21 02:38:49;;;;;;;5.18;2.90;;;;;;;20.38;43.17;101707.13;5004159;28;20578;-68
2023/05/21 02:41:14;;;;;;;5.43;3.10;;;;;;;20.39;43.29;101708.78;5018753;28;20092;-68
2023/05/21 02:43:40;;;;;;;5.97;2.80;;;;;;;20.41;43.38;101709.50;5010978;28;20046;-70
2023/05/21 02:46:06;;;;;;;4.70;2.55;;;;;;;20.40;43.36;101710.47;5020912;28;20128;-69
2023/05/21 02:48:31;;;;;;;5.30;3.53;;;;;;;20.38;43.40;101705.31;5010992;28;20034;-69
2023/05/21 02:50:57;;;;;;;5.20;2.85;;;;;;;20.39;43.25;101708.78;5017092;28;20032;-68
2023/05/21 02:53:22;;;;;;;6.28;3.00;;;;;;;20.39;43.41;101706.13;5020455;28;20025;-67
2023/05/21 02:55:48;;;;;;;5.00;2.83;;;;;;;20.36;43.38;101699.28;5020803;28;20382;-70
2023/05/21 02:58:13;;;;;;;4.85;2.90;;;;;;;20.39;43.34;101701.66;5003860;28;20271;-70
2023/05/21 03:00:39;;;;;;;4.32;2.90;;;;;;;20.38;43.39;101699.19;5010709;28;20174;-69
2023/05/21 03:03:04;;;;;;;4.22;2.72;;;;;;;20.36;43.39;101694.00;5019680;28;20469;-70
2023/05/21 03:05:30;;;;;;;5.75;3.17;;;;;;;20.38;43.38;101689.41;5008362;28;20413;-70
2023/05/21 03:07:55;;;;;;;4.82;3.00;;;;;;;20.37;43.21;101690.38;5003438;28;20073;-70
2023/05/21 03:10:20;;;;;;;4.28;2.90;;;;;;;20.37;43.33;101684.25;5004773;28;20037;-68
2023/05/21 03:12:46;;;;;;;4.53;2.88;;;;;;;20.38;43.32;101689.41;5010778;28;20406;-68
2023/05/21 03:15:13;;;;;;;4.25;2.55;;;;;;;20.37;43.38;101685.06;5021554;28;20061;-70
2023/05/21 03:17:38;;;;;;;4.68;3.00;;;;;;;20.36;43.45;101682.53;5011398;28;20049;-70
2023/05/21 03:20:04;;;;;;;9.75;3.13;;;;;;;20.36;43.33;101685.19;5020168;28;20177;-72
2023/05/21 03:22:30;;;;;;;5.20;2.95;;;;;;;20.36;43.60;101686.06;5020585;28;20034;-69
2023/05/21 03:24:57;;;;;;;4.13;2.65;;;;;;;20.35;43.28;101679.06;5013297;28;20040;-71
2023/05/21 03:27:22;;;;;;;5.28;3.28;;;;;;;20.36;43.55;101682.53;5018017;28;20038;-68
2023/05/21 03:29:47;;;;;;;4.93;3.10;;;;;;;20.35;43.68;101676.41;5020160;28;20044;-70
2023/05/21 03:32:13;;;;;;;5.57;3.20;;;;;;;20.36;43.45;101683.41;5024243;28;20072;-70
2023/05/21 03:34:38;;;;;;;4.63;3.05;;;;;;;20.36;43.45;101677.25;5015561;28;20034;-68
2023/05/21 03:37:03;;;;;;;5.35;2.95;;;;;;;20.37;43.56;101681.59;5008948;28;20471;-69
2023/05/21 03:39:28;;;;;;;5.05;3.03;;;;;;;20.34;43.54;101680.00;5009167;28;20036;-71
2023/05/21 03:41:54;;;;;;;4.90;3.03;;;;;;;20.34;43.56;101685.31;5013483;28;20029;-68
2023/05/21 03:44:19;;;;;;;5.28;2.75;;;;;;;20.35;43.58;101683.53;5015186;28;20459;-68
2023/05/21 03:46:44;;;;;;;5.68;3.17;;;;;;;20.33;43.62;101678.34;5012064;28;20091;-68
2023/05/21 03:49:10;;;;;;;4.38;2.75;;;;;;;20.33;43.78;101680.13;5013297;28;20037;-69
2023/05/21 03:51:37;;;;;;;4.85;2.95;;;;;;;20.36;43.61;101687.84;5015169;28;20534;-68
2023/05/21 03:54:02;;;;;;;4.72;3.13;;;;;;;20.34;43.68;101679.19;5005189;28;20052;-68
2023/05/21 03:56:27;;;;;;;5.28;3.05;;;;;;;20.35;43.75;101680.88;5010908;28;20045;-68
2023/05/21 03:58:53;;;;;;;5.30;3.10;;;;;;;20.33;43.80;101675.69;5017189;28;20469;-68
2023/05/21 04:01:18;;;;;;;4.55;2.70;;;;;;;20.31;43.72;101669.66;5009053;28;20371;-68
2023/05/21 04:03:43;;;;;;;4.75;2.97;;;;;;;20.32;43.86;101673.19;5008652;28;20029;-68
2023/05/21 04:06:09;;;;;;;4.47;2.78;;;;;;;20.28;43.96;101675.19;5009331;28;20044;-68
2023/05/21 04:08:35;;;;;;;5.53;2.88;;;;;;;20.32;43.68;101678.47;5018530;28;20075;-70
2023/05/21 04:11:00;;;;;;;4.70;2.90;;;;;;;20.32;43.77;101678.47;5014828;28;20022;-71
2023/05/21 04:13:27;;;;;;;4.53;2.88;;;;;;;20.34;43.88;101679.19;5022795;28;20033;-71
2023/05/21 04:15:53;;;;;;;4.40;3.00;;;;;;;20.30;43.92;101674.13;5019181;28;20065;-69
2023/05/21 04:18:19;;;;;;;4.25;2.80;;;;;;;20.30;43.91;101683.88;5009030;28;20033;-69
2023/05/21 04:20:44;;;;;;;5.10;3.33;;;;;;;20.33;43.85;101685.44;5012587;28;20481;-70
2023/05/21 04:23:10;;;;;;;7.38;3.22;;;;;;;20.33;44.69;101680.13;5021010;28;20083;-70
2023/05/21 04:25:35;;;;;;;6.85;3.40;;;;;;;20.31;44.03;101682.91;5014899;28;20508;-69
2023/05/21 04:28:01;;;;;;;5.33;3.13;;;;;;;20.31;44.21;101688.19;5020288;28;20567;-69
2023/05/21 04:30:26;;;;;;;5.18;3.13;;;;;;;20.33;43.91;101686.28;5013918;28;20267;-70
2023/05/21 04:32:51;;;;;;;4.55;2.70;;;;;;;20.32;43.74;101683.75;5014507;28;20540;-72
2023/05/21 04:35:17;;;;;;;6.10;3.20;;;;;;;20.31;43.77;101688.19;5014178;28;20087;-69
2023/05/21 04:37:44;;;;;;;4.93;2.80;;;;;;;20.28;43.81;101691.94;5015575;28;20275;-71
2023/05/21 04:40:11;;;;;;;5.22;3.17;;;;;;;20.29;43.84;101696.25;5012721;28;20096;-70
2023/05/21 04:42:36;;;;;;;4.65;2.83;;;;;;;20.30;44.11;101691.81;5012230;28;20042;-70
2023/05/21 04:45:01;;;;;;;5.15;3.20;;;;;;;20.28;43.84;101686.66;5014597;28;20052;-71
2023/05/21 04:47:34;;;;;;;5.22;3.20;;;;;;;20.27;44.17;101689.41;5016817;28;20037;-69
2023/05/21 04:49:59;;;;;;;5.70;3.20;;;;;;;20.30;44.10;101702.41;5016066;28;20033;-69
2023/05/21 04:52:25;;;;;;;4.90;3.13;;;;;;;20.28;44.12;101694.59;5016908;28;20605;-69
2023/05/21 04:54:52;;;;;;;5.20;3.10;;;;;;;20.29;44.11;101690.13;5009681;28;20037;-69
2023/05/21 04:57:18;;;;;;;5.60;3.38;;;;;;;20.27;44.05;101692.88;5008825;28;20037;-71
2023/05/21 04:59:43;;;;;;;5.55;3.05;;;;;;;20.27;44.09;101694.69;5003484;28;20037;-70
2023/05/21 05:02:08;;;;;;;5.60;3.28;;;;;;;20.29;44.10;101698.91;5032298;28;20033;-70
2023/05/21 05:04:34;;;;;;;6.00;3.53;;;;;;;20.27;44.11;101695.53;5007711;28;20034;-70
2023/05/21 05:06:59;;;;;;;4.50;2.95;;;;;;;20.29;44.07;101693.59;5017033;28;20036;-70
2023/05/21 05:09:25;;;;;;;5.13;3.22;;;;;;;20.29;44.20;101696.25;5006512;28;20061;-70
2023/05/21 05:11:50;;;;;;;5.07;3.22;;;;;;;20.28;44.23;101697.22;5002552;28;20765;-69
2023/05/21 05:14:15;;;;;;;5.80;3.40;;;;;;;20.29;43.86;101693.59;5002389;28;20397;-69
2023/05/21 05:16:41;;;;;;;5.18;3.08;;;;;;;20.28;44.14;101684.00;5015757;28;20037;-69
2023/05/21 05:19:07;;;;;;;5.07;3.30;;;;;;;20.28;44.18;101688.44;5021793;28;20025;-67
2023/05/21 05:21:32;;;;;;;5.15;3.10;;;;;;;20.27;44.12;101689.41;5013584;28;20033;-69
2023/05/21 05:23:57;;;;;;;4.90;3.00;;;;;;;20.27;43.96;101692.88;5014196;28;20543;-69
2023/05/21 05:26:23;;;;;;;5.05;3.25;;;;;;;20.28;44.07;101685.78;5010841;28;20259;-68
2023/05/21 05:28:48;;;;;;;5.18;3.05;;;;;;;20.27;44.32;101684.13;5009504;28;20030;-69
2023/05/21 05:31:13;;;;;;;5.82;2.95;;;;;;;20.27;44.29;101686.75;5020721;28;20048;-69
2023/05/21 05:33:40;;;;;;;5.30;3.20;;;;;;;20.25;44.32;101684.22;5006254;28;20041;-68
2023/05/21 05:36:05;;;;;;;5.10;3.13;;;;;;;20.25;44.32;101688.66;5021039;28;20025;-68
2023/05/21 05:38:32;;;;;;;5.18;3.08;;;;;;;20.22;44.52;101692.41;5019309;28;20705;-68
2023/05/21 05:40:57;;;;;;;5.38;3.15;;;;;;;20.19;44.43;101690.00;5002298;28;20045;-69
2023/05/21 05:43:24;;;;;;;5.63;2.77;;;;;;;20.17;44.33;101691.06;5018961;28;20059;-69
2023/05/21 05:45:49;;;;;;;4.82;2.95;;;;;;;20.16;44.48;101684.09;5016967;28;20289;-68
2023/05/21 05:48:15;;;;;;;4.40;2.90;;;;;;;20.19;44.42;101687.34;5008808;28;20037;-67
2023/05/21 05:50:41;;;;;;;5.50;2.85;;;;;;;20.19;44.63;101690.00;5004788;28;20079;-68
2023/05/21 05:53:07;;;;;;;4.90;3.10;;;;;;;20.20;44.52;101689.03;5020547;28;20140;-68
2023/05/21 05:55:32;;;;;;;5.10;2.80;;;;;;;20.21;44.51;101695.16;5010181;28;20091;-69
2023/05/21 05:57:57;;;;;;;5.05;3.20;;;;;;;20.22;44.31;101688.91;5021015;28;20469;-70
2023/05/21 06:00:22;;;;;;;5.30;3.00;;;;;;;20.22;44.52;101689.75;5015562;28;20061;-69
2023/05/21 06:02:48;;;;;;;4.60;2.95;;;;;;;20.21;44.38;101688.06;5001614;28;20266;-69
2023/05/21 06:05:13;;;;;;;5.88;3.20;;;;;;;20.22;44.36;101700.34;5001731;28;20056;-70
2023/05/21 06:07:39;;;;;;;4.68;3.05;;;;;;;20.21;44.33;101689.88;5020958;28;20037;-69
2023/05/21 06:10:05;;;;;;;5.30;3.00;;;;;;;20.22;44.43;101683.59;5015031;28;20041;-69
2023/05/21 06:12:31;;;;;;;4.03;2.60;;;;;;;20.23;44.65;101693.25;5011044;28;20034;-69
2023/05/21 06:14:56;;;;;;;4.85;3.10;;;;;;;20.23;44.53;101683.47;5012717;28;20141;-69
2023/05/21 06:17:21;;;;;;;5.20;3.30;;;;;;;20.24;44.65;101684.34;5010742;28;20143;-68
2023/05/21 06:19:47;;;;;;;4.97;2.97;;;;;;;20.22;44.56;101687.13;5001624;28;20476;-69
2023/05/21 06:22:12;;;;;;;5.72;3.60;;;;;;;20.25;44.55;101688.66;5001450;28;20041;-68
2023/05/21 06:24:37;;;;;;;5.13;3.22;;;;;;;20.23;44.84;101699.38;5013247;28;20084;-70
2023/05/21 06:27:03;;;;;;;4.80;3.20;;;;;;;20.21;44.80;101692.53;5001232;28;20540;-70
2023/05/21 06:29:28;;;;;;;4.68;2.90;;;;;;;20.18;44.80;101688.28;5026752;28;20101;-68
2023/05/21 06:31:53;;;;;;;4.80;2.97;;;;;;;20.18;44.93;101695.41;5002828;28;20111;-68
2023/05/21 06:34:19;;;;;;;5.35;3.15;;;;;;;20.12;45.00;101683.47;5006263;28;20034;-69
2023/05/21 06:36:44;;;;;;;5.50;3.33;;;;;;;20.11;45.00;101685.28;5007809;28;20045;-69
2023/05/21 06:39:09;;;;;;;4.55;3.05;;;;;;;20.19;44.78;101695.28;5008200;28;20995;-70
2023/05/21 06:41:35;;;;;;;6.87;3.37;;;;;;;20.15;45.02;101683.25;5001586;28;20081;-70
2023/05/21 06:44:00;;;;;;;5.10;3.17;;;;;;;20.18;45.04;101685.66;5006656;28;20270;-71
2023/05/21 06:46:25;;;;;;;7.43;2.92;;;;;;;20.18;44.85;101698.88;5005534;28;20172;-69
2023/05/21 06:48:50;;;;;;;6.10;3.20;;;;;;;20.11;44.70;101687.94;5010322;28;20037;-69
2023/05/21 06:51:16;;;;;;;7.13;3.10;;;;;;;20.21;44.75;101688.06;5024713;28;20325;-68
2023/05/21 06:53:41;;;;;;;4.22;2.85;;;;;;;20.27;44.73;101689.41;5024627;28;20363;-68
2023/05/21 06:56:06;;;;;;;5.55;3.30;;;;;;;20.23;45.01;101687.94;5024146;28;20397;-68
2023/05/21 06:58:32;;;;;;;4.63;3.20;;;;;;;20.25;45.34;101688.66;5018572;28;20042;-68
2023/05/21 07:00:57;;;;;;;6.82;3.53;;;;;;;20.20;45.32;101675.81;5015324;28;20490;-68
2023/05/21 07:03:23;;;;;;;4.88;3.00;;;;;;;20.21;45.44;101676.66;5010582;28;20152;-68
2023/05/21 07:05:48;;;;;;;6.43;3.10;;;;;;;20.22;45.54;101673.00;5009329;28;20093;-69
2023/05/21 07:08:13;;;;;;;5.10;3.20;;;;;;;20.24;45.22;101679.06;5015567;28;20029;-69
2023/05/21 07:10:38;;;;;;;6.18;3.22;;;;;;;20.21;45.42;101669.53;5010924;28;20048;-71
2023/05/21 07:13:04;;;;;;;5.17;3.40;;;;;;;20.19;45.74;101668.81;5023460;28;20033;-70
2023/05/21 07:15:29;;;;;;;6.15;3.72;;;;;;;20.15;46.21;101662.06;5006902;28;20299;-72
2023/05/21 07:17:54;;;;;;;5.13;3.00;;;;;;;20.14;46.09;101659.53;5004939;28;20040;-71
2023/05/21 07:20:20;;;;;;;7.67;3.40;;;;;;;20.15;46.11;101661.22;5007857;28;20259;-70
2023/05/21 07:22:45;;;;;;;4.93;3.40;;;;;;;20.18;46.41;101672.41;5008546;28;20724;-71
2023/05/21 07:25:10;;;;;;;6.15;3.30;;;;;;;20.14;46.52;101663.03;5022758;28;20037;-72
2023/05/21 07:27:35;;;;;;;7.38;3.15;;;;;;;20.15;46.71;101667.34;5022756;28;20067;-71
2023/05/21 07:30:01;;;;;;;6.05;3.35;;;;;;;20.12;46.87;101662.31;5021349;28;20147;-69
2023/05/21 07:32:27;;;;;;;5.18;3.40;;;;;;;20.17;46.84;101673.41;5014257;28;20104;-71
2023/05/21 07:34:53;;;;;;;5.53;3.45;;;;;;;20.18;46.90;101661.00;5019641;28;20033;-73
2023/05/21 07:37:19;;;;;;;5.90;3.35;;;;;;;20.17;46.81;101660.16;5005635;28;20482;-71
2023/05/21 07:39:44;;;;;;;5.07;3.60;;;;;;;20.21;47.09;101671.34;5015550;28;20041;-74
2023/05/21 07:42:10;;;;;;;6.43;3.40;;;;;;;20.29;46.92;101658.34;5012326;28;20363;-74
2023/05/21 07:44:35;;;;;;;5.00;3.10;;;;;;;20.41;46.73;101667.13;5019783;28;20052;-73
2023/05/21 07:47:00;;;;;;;5.43;3.40;;;;;;;20.44;46.79;101667.75;5016675;28;20034;-73
2023/05/21 07:49:25;;;;;;;10.02;3.92;;;;;;;20.45;46.80;101663.31;5006260;28;20034;-73
2023/05/21 07:51:51;;;;;;;5.65;3.40;;;;;;;20.45;47.04;101655.34;5008110;28;20382;-73
2023/05/21 07:54:16;;;;;;;6.43;3.55;;;;;;;20.44;47.02;101659.81;5010503;28;20040;-73
2023/05/21 07:56:41;;;;;;;6.75;3.55;;;;;;;20.46;47.06;101659.69;5015034;28;20787;-69
2023/05/21 07:59:06;;;;;;;7.57;3.90;;;;;;;20.48;47.27;101658.59;5009698;28;20042;-69
2023/05/21 08:01:32;;;;;;;8.02;3.60;;;;;;;20.53;47.47;101666.19;5002981;28;20719;-69
2023/05/21 08:03:59;;;;;;;5.50;3.50;;;;;;;20.56;47.28;101668.59;5009997;28;20030;-69
2023/05/21 08:06:25;;;;;;;7.03;4.00;;;;;;;20.61;48.25;101657.63;5008260;28;20258;-71
2023/05/21 08:08:51;;;;;;;9.45;3.97;;;;;;;20.58;48.05;101664.00;5018674;28;20042;-69
2023/05/21 08:11:16;;;;;;;9.43;4.20;;;;;;;20.62;47.71;101662.81;5017145;28;20056;-69
2023/05/21 08:13:41;;;;;;;6.35;3.80;;;;;;;20.62;47.88;101654.03;5017913;28;20128;-71
2023/05/21 08:16:06;;;;;;;6.65;3.58;;;;;;;20.69;48.13;101659.72;5010208;28;20141;-69
2023/05/21 08:18:32;;;;;;;5.83;3.90;;;;;;;20.72;47.84;101662.97;5010910;28;20486;-74
2023/05/21 08:20:59;;;;;;;10.02;3.92;;;;;;;20.75;48.18;101654.78;5016113;28;20272;-74
2023/05/21 08:23:25;;;;;;;7.97;3.40;;;;;;;20.77;48.30;101652.00;5017185;28;20561;-74
2023/05/21 08:25:52;;;;;;;6.20;3.78;;;;;;;20.77;48.42;101646.69;5022032;28;20048;-71
2023/05/21 08:28:17;;;;;;;9.48;4.15;;;;;;;20.78;48.23;101651.03;5017754;28;20084;-72
2023/05/21 08:30:43;;;;;;;8.32;3.90;;;;;;;20.75;48.50;101652.13;5008896;28;20025;-72
2023/05/21 08:33:08;;;;;;;6.65;3.88;;;;;;;20.79;48.35;101647.41;5019101;28;20034;-72
2023/05/21 08:35:33;;;;;;;9.20;3.92;;;;;;;20.77;48.25;101639.59;5002459;28;20559;-71
2023/05/21 08:37:58;;;;;;;7.53;3.70;;;;;;;20.77;48.49;101647.53;5004824;28;20034;-71
2023/05/21 08:40:24;;;;;;;7.28;3.90;;;;;;;20.79;48.25;101640.31;5011371;28;21238;-71
2023/05/21 08:42:50;;;;;;;8.05;5.70;;;;;;;20.71;48.87;101642.75;5002323;28;20041;-70
2023/05/21 08:45:22;;;;;;;7.53;4.50;;;;;;;20.73;48.65;101635.50;5012937;28;20033;-72
2023/05/21 08:47:54;;;;;;;7.53;3.95;;;;;;;20.74;48.52;101642.47;5021707;28;20955;-72
2023/05/21 08:50:23;;;;;;;6.43;3.53;;;;;;;20.74;48.25;101637.19;5010656;28;20040;-71
2023/05/21 08:52:49;;;;;;;6.88;4.10;;;;;;;20.79;48.18;101635.03;5018995;28;20116;-72
2023/05/21 08:55:15;;;;;;;8.32;4.25;;;;;;;20.81;48.33;101640.19;5013678;28;20437;-68
2023/05/21 08:57:42;;;;;;;6.75;4.10;;;;;;;20.83;48.09;101633.78;5003500;28;20034;-71
2023/05/21 09:00:08;;;;;;;7.97;4.22;;;;;;;20.84;47.92;101638.13;5006914;28;20034;-71
2023/05/21 09:02:35;;;;;;;7.63;3.95;;;;;;;20.86;47.92;101635.38;5002707;28;20056;-71
2023/05/21 09:05:02;;;;;;;5.63;3.47;;;;;;;20.88;48.06;101638.72;5018555;28;20037;-70
2023/05/21 09:07:28;;;;;;;7.47;3.53;;;;;;;20.89;47.90;101637.78;5010003;28;20030;-70
2023/05/21 09:09:57;;;;;;;6.70;3.78;;;;;;;20.89;48.08;101636.94;5007509;28;20056;-73
2023/05/21 09:12:26;;;;;;;6.80;3.80;;;;;;;20.87;47.46;101633.56;5008928;28;20086;-69
2023/05/21 09:14:52;;;;;;;7.28;4.15;;;;;;;20.86;47.92;101626.59;5011413;28;20058;-70
2023/05/21 09:17:21;;;;;;;5.90;3.85;;;;;;;20.88;48.03;101632.59;5018764;28;20037;-72
2023/05/21 09:20:16;;;;;;;5.85;4.07;;;;;;;20.91;47.84;101633.19;5014140;28;20080;-69
2023/05/21 09:22:46;;;;;;;5.57;3.58;;;;;;;20.95;47.89;101639.94;5016885;28;21181;-67
2023/05/21 09:25:14;;;;;;;6.05;3.80;;;;;;;20.99;47.80;101646.66;5007793;28;20497;-69
2023/05/21 09:27:40;;;;;;;9.25;4.10;;;;;;;21.01;47.67;101639.44;5008273;28;20037;-69
2023/05/21 09:30:13;;;;;;;8.75;4.28;;;;;;;20.97;47.73;101638.00;5013007;28;20030;-69
2023/05/21 09:32:40;;;;;;;6.53;4.07;;;;;;;21.00;47.80;101634.25;5009718;28;20033;-70
2023/05/21 09:35:10;;;;;;;7.20;3.95;;;;;;;20.98;47.64;101629.09;5013787;28;20056;-70
2023/05/21 09:37:43;;;;;;;10.38;4.28;;;;;;;20.98;47.84;101623.78;5017001;28;20033;-71
2023/05/21 09:40:14;;;;;;;6.53;3.80;;;;;;;20.99;47.74;101632.56;5013878;28;20083;-71
2023/05/21 09:42:40;;;;;;;7.10;4.03;;;;;;;21.00;47.75;101631.59;5009498;28;20469;-69
2023/05/21 09:45:07;;;;;;;6.50;4.10;;;;;;;21.00;47.63;101623.66;5007704;28;20478;-69
2023/05/21 09:47:33;;;;;;;6.60;4.00;;;;;;;20.99;47.43;101625.44;5007584;28;20065;-70
2023/05/21 09:49:59;;;;;;;11.63;4.03;;;;;;;20.99;47.40;101622.78;5005511;28;20073;-72
2023/05/21 09:52:25;;;;;;;8.63;4.38;;;;;;;20.96;47.25;101617.75;5011066;28;20482;-72
2023/05/21 09:54:51;;;;;;;8.90;3.85;;;;;;;20.98;47.59;101618.50;5006941;28;20034;-72
2023/05/21 09:57:23;;;;;;;8.20;4.03;;;;;;;20.98;47.73;101623.78;5005800;28;20232;-71
2023/05/21 09:59:49;;;;;;;6.15;3.85;;;;;;;21.01;47.38;101622.69;5014867;28;20038;-72
2023/05/21 10:02:22;;;;;;;6.50;4.00;;;;;;;20.97;47.56;101613.31;5007883;28;20038;-70
2023/05/21 10:04:48;;;;;;;6.32;3.90;;;;;;;21.00;47.36;101624.50;5009617;28;20052;-70
2023/05/21 10:07:24;;;;;;;7.30;3.90;;;;;;;20.99;47.57;101619.31;5010278;28;20033;-69
2023/05/21 10:09:52;;;;;;;6.22;4.32;;;;;;;21.00;47.52;101608.59;5008717;28;20120;-67
2023/05/21 10:12:18;;;;;;;10.27;4.00;;;;;;;20.97;47.83;101608.00;5014144;28;21361;-69
2023/05/21 10:14:48;;;;;;;8.32;4.78;;;;;;;21.00;47.61;101597.16;5014523;28;20149;-72
2023/05/21 10:17:15;;;;;;;9.02;3.83;;;;;;;20.99;47.47;101598.13;5018945;28;20470;-71
2023/05/21 10:19:40;;;;;;;5.55;3.75;;;;;;;21.00;47.47;101587.41;5011244;28;20704;-70
2023/05/21 10:22:06;;;;;;;7.80;3.78;;;;;;;20.96;47.37;101583.31;5015310;28;20041;-70
2023/05/21 10:24:33;;;;;;;5.60;3.95;;;;;;;21.00;47.62;101590.03;5008635;28;20195;-69
2023/05/21 10:27:00;;;;;;;7.00;3.70;;;;;;;21.02;47.46;101592.56;5012437;28;20096;-69
2023/05/21 10:29:26;;;;;;;5.88;3.45;;;;;;;21.02;47.01;101595.22;5009050;28;20091;-67
2023/05/21 10:31:51;;;;;;;6.95;3.95;;;;;;;21.01;47.34;101586.44;5018441;28;20034;-67
2023/05/21 10:34:18;;;;;;;7.05;4.45;;;;;;;20.99;47.02;101579.56;5008917;28;20034;-70
2023/05/21 10:36:43;;;;;;;9.20;4.22;;;;;;;20.96;47.24;101567.41;5007854;28;20052;-75
2023/05/21 10:39:11;;;;;;;6.38;3.80;;;;;;;21.02;47.25;101579.31;5014471;28;20619;-74
2023/05/21 10:41:53;;;;;;;7.05;3.70;;;;;;;21.03;47.45;101581.00;5010012;28;20471;-73
2023/05/21 10:44:32;;;;;;;7.32;3.95;;;;;;;21.08;47.14;101576.16;5012164;28;20410;-73
2023/05/21 10:47:46;;;;;;;7.78;4.03;;;;;;;21.13;47.25;101573.97;5008381;28;20034;-73
2023/05/21 10:50:39;;;;;;;9.40;4.10;;;;;;;21.12;47.44;101569.63;4984690;28;20478;-71
2023/05/21 10:53:41;;;;;;;9.13;4.40;;;;;;;21.13;47.80;101562.53;5016725;28;20133;-70
2023/05/21 10:56:21;;;;;;;8.25;5.20;;;;;;;21.11;48.20;101567.09;5017771;28;20391;-69
2023/05/21 10:59:11;;;;;;;12.43;6.13;;;;;;;21.11;48.80;101562.66;5019826;28;20088;-72
2023/05/21 11:01:39;;;;;;;7.40;6.10;;;;;;;21.15;48.97;101552.66;5011973;28;20132;-71
2023/05/21 11:04:05;;;;;;;12.02;6.45;;;;;;;21.13;48.60;101554.59;5011576;28;20672;-69
2023/05/21 11:06:30;;;;;;;8.32;5.47;;;;;;;21.11;47.96;101541.47;5013084;28;20033;-70
2023/05/21 11:09:00;;;;;;;7.50;5.55;;;;;;;21.11;47.92;101556.50;5018250;28;20038;-69
2023/05/21 11:11:42;;;;;;;9.20;5.60;;;;;;;21.03;47.79;101549.22;5005239;28;20041;-70
2023/05/21 11:14:55;;;;;;;9.05;6.03;;;;;;;21.02;48.29;101543.06;5008814;28;20490;-72
2023/05/21 11:17:39;;;;;;;11.38;5.47;;;;;;;21.06;47.85;101525.13;5010393;28;20092;-72
2023/05/21 11:20:10;;;;;;;;;;;;;;;21.13;47.78;101536.03;5017398;28;20064;-68
2023/05/21 11:22:35;;;;;;;10.32;5.53;;;;;;;21.11;47.96;101525.56;5006011;28;19996;-70
2023/05/21 11:25:02;;;;;;;7.82;5.55;;;;;;;21.11;48.12;101511.44;5007101;28;20128;-71